CheckWX is a tool to help pilots better visualize weather data.  It is not intended as a substitute for an official pre-flight weather briefing.

05:45:07 UTC

KALO TAF
Waterloo Regional Airport
Waterloo, Iowa, USA
KALO 252337Z 2600/2624 12012KT P6SM SCT025 OVC040 FM261000 14010KT P6SM SCT008 OVC019 FM261300 14007KT 6SM BR OVC010 FM261800 17007KT P6SM VCSH BKN020 FM262200 24008KT P6SM SCT025 BKN035

Aug-26@
00:00 UTC

Aug-26 @ 00:00 UTC

Aug-26@
10:00 UTC

Aug-26 @ 10:00 UTC

KALO 252337Z 2600/2624 12012KT P6SM SCT025 OVC040
Wind
  • 120° at 12 KTS
Cloud Levels
  • Scattered at 2,500' AGL
  • Overcast at 4,000' AGL

Aug-26@
10:00 UTC

Aug-26 @ 10:00 UTC

Aug-26@
13:00 UTC

Aug-26 @ 13:00 UTC

FM261000 14010KT P6SM SCT008 OVC019

From

From Standard forecast or significant change

Wind
  • 140° at 10 KTS
Cloud Levels
  • Scattered at 800' AGL
  • Overcast at 1,900' AGL

Aug-26@
13:00 UTC

Aug-26 @ 13:00 UTC

Aug-26@
18:00 UTC

Aug-26 @ 18:00 UTC

FM261300 14007KT 6SM BR OVC010

From

From Standard forecast or significant change

Wind
  • 140° at 7 KTS
Conditions
Mist
Cloud Levels
  • Overcast at 1,000' AGL

Aug-26@
18:00 UTC

Aug-26 @ 18:00 UTC

Aug-26@
22:00 UTC

Aug-26 @ 22:00 UTC

FM261800 17007KT P6SM VCSH BKN020

From

From Standard forecast or significant change

Wind
  • 170° at 7 KTS
Cloud Levels
  • Broken at 2,000' AGL

Aug-26@
22:00 UTC

Aug-26 @ 22:00 UTC

Aug-27@
00:00 UTC

Aug-27 @ 00:00 UTC

FM262200 24008KT P6SM SCT025 BKN035

From

From Standard forecast or significant change

Wind
  • 240° at 8 KTS
Cloud Levels
  • Scattered at 2,500' AGL
  • Broken at 3,500' AGL